ไทเป, ไต้หวัน

09:56 PM CST วัน สิงหาคม 28, 2016 (GMT +0800)
ITAIPEIT2 | | Change Station

Elev 30 ft 25.03 °N, 121.53 °E | Updated 16 seconds ago

Mostly Cloudy
มีเมฆคลุมเป็นส่วนใหญ่
78.3 ฟาเรนไฮน์
Feels Like 81 ฟาเรนไฮน์
N
3.0
ลม ความผันแปร ลม from ทางทิศตะวันออก
Gusts 6.0 mph

วันนี้
High -- | Low -- ฟาเรนไฮน์
--% Chance of Precip.
Yesterday
High -- | Low -- ฟาเรนไฮน์
Precip. -- นิ้ว
ความดัน 29.77 นิ้ว
ทัศนวิสัย 6.2 ไมล์
เมฆ Few 1500 ft
มีเมฆคลุมเป็นบางส่วน 2000 ft
มีเมฆคลุมเป็นส่วนใหญ่ 6000 ft
ดัชนีความร้อน 81 ฟาเรนไฮน์
อุณหภูมิที่อากาศอาจจับตัวเป็นหยาดน้ำค้าง 71 ฟาเรนไฮน์
ความชื้น 79%
Rainfall 0.33 นิ้ว
Snow Depth Not available.
5:33 AM 6:16 PM
เดือนเสี้ยว, 15% visible
METAR RCSS 281330Z 14003KT 110V230 9999 FEW015 SCT020 BKN060 26/18 Q1008 NOSIG RMK A2978
ความดัน 29.77 นิ้ว
ทัศนวิสัย 6.2 ไมล์
เมฆ Few 1500 ft
มีเมฆคลุมเป็นบางส่วน 2000 ft
มีเมฆคลุมเป็นส่วนใหญ่ 6000 ft
ดัชนีความร้อน 81 ฟาเรนไฮน์
อุณหภูมิที่อากาศอาจจับตัวเป็นหยาดน้ำค้าง 71 ฟาเรนไฮน์
ความชื้น 79%
Rainfall 0.33 นิ้ว
Snow Depth Not available.
5:33 AM 6:16 PM
เดือนเสี้ยว, 15% visible
METAR RCSS 281330Z 14003KT 110V230 9999 FEW015 SCT020 BKN060 26/18 Q1008 NOSIG RMK A2978

10-Day Weather Forecast

No radar image for this location.
×

Almanac

ดาราศาสตร์

Aug. 28, 2016 Rise Set
Actual Time
Civil Twilight
Nautical Twilight
Astronomical Twilight
Moon
Length Of Visible Light
ความยาวของวัน
Tomorrow will be .
, % of the Moon is Illuminated

Today's Extremes

Country Highs Country Lows

Community

WunderPhotos

Upload Photos

1,935,567 photos uploaded!

WunderBlog® & News

Nearby

Air Quality

  Air Quality AQ Index Pollutant
Not available.

Snow Depth

Station Depth Elevation

Earthquake Activity

City Distance Mag. Time & Date
Minimum magnitude displayed is 2.5.

Coastal Water Temperatures

สถานที่ อุณหภูมิ

Stations

Nearby Weather Stations

Station Location Temp ลมหนาว อุณหภูมิที่อากาศอาจจับตัวเป็นหยาดน้ำค้าง ความชื้น ลม Precip. Elev ปรับปรุงล่าสุด Type